To NAV CANADA Home Page Login to a new session Search on AWWS site Feedback and Comments Disclaimer Vers la page française équivalente Tips FAQ What's new on the site To the Forecasts and Observations / NOTAM section To "File a Flight Plan" website Publications and other links Update of the User's profile FIC Telephone Numbers My Weather Data Folder Route Weather Data Regional Weather Data Local Weather Data To the Forecasts and Observations / NOTAM section
Request Generated 02/24/2017 at 03:35:20 UTC . Weather information available at that time is displayed.

METAR/TAF

COMOX/BC    

METAR CYQQ 240300Z 32002KT 20SM BKN050 OVC080 03/M03 A3018 RMK SC6AC2 SLP220=
METAR CYQQ 240200Z 27003KT 20SM FEW045 SCT072 OVC150 04/M05 A3019 RMK SC2AC1AC5 SLP223=
METAR CYQQ 240100Z 30002KT 20SM FEW040 SCT160 BKN220 05/M06 A3020 RMK SC0AS4CI3 SLP228=

TAF CYQQ 232339Z 2400/2424 36005KT P6SM SCT040 BKN220
FM240600 VRB03KT P6SM BKN030 OVC080 TEMPO 2406/2412 P6SM -SHRA
BKN020
FM241200 12005KT P6SM -SHRA BKN012 OVC080 TEMPO 2412/2418 P6SM
NSW SCT012 BKN080
FM241800 13008KT P6SM BKN025 TEMPO 2418/2421 P6SM -SHRA
FM242100 14008KT P6SM SCT030
RMK NXT FCST BY 240600Z=
Your time UTC time
Weather data provided by Environment Canada and NAV CANADA